N722CP KUZA-KSPA
Flight info
| Callsign | N722CP |
|---|---|
| Flight time | N/A |
| Altitude | 3500 |
| Route | VFR |
| Aircraft | C90/L-R/L |
Departure
| Time | 2026-04-25 19:11 |
|---|---|
| Airport | Rock Hill - York County Airport (KUZA) |
Arrival
| Time | N/A |
|---|---|
| Airport | Spartanburg Downtown Memorial Airport (KSPA) |
| Time | Latitude | Longitude | Altitude | Speed | Heading |
|---|---|---|---|---|---|
| 2026-04-25 19:06 | 34.98571 | -81.05974 | 660 ft | 0 kts | 100° |
| 2026-04-25 19:07 | 34.98582 | -81.05936 | 659 ft | 8 kts | 99° |
| 2026-04-25 19:08 | 34.98718 | -81.05870 | 658 ft | 16 kts | 10° |
| 2026-04-25 19:08 | 34.98853 | -81.05838 | 660 ft | 23 kts | 11° |
| 2026-04-25 19:09 | 34.99337 | -81.05720 | 660 ft | 24 kts | 11° |
| 2026-04-25 19:09 | 34.99448 | -81.05693 | 657 ft | 25 kts | 13° |
| 2026-04-25 19:09 | 34.99533 | -81.05627 | 654 ft | 2 kts | 102° |
| 2026-04-25 19:10 | 34.99526 | -81.05583 | 654 ft | 10 kts | 111° |
| 2026-04-25 19:10 | 34.99428 | -81.05563 | 655 ft | 26 kts | 192° |
| 2026-04-25 19:10 | 34.99140 | -81.05634 | 659 ft | 56 kts | 191° |
| 2026-04-25 19:10 | 34.98636 | -81.05753 | 654 ft | 92 kts | 191° |
| 2026-04-25 19:11 | 34.97971 | -81.05894 | 759 ft | 100 kts | 194° |
| 2026-04-25 19:11 | 34.97263 | -81.06036 | 980 ft | 98 kts | 193° |
| 2026-04-25 19:11 | 34.96556 | -81.06151 | 1103 ft | 111 kts | 192° |
| 2026-04-25 19:11 | 34.95710 | -81.06278 | 1371 ft | 127 kts | 191° |
| 2026-04-25 19:12 | 34.94858 | -81.06297 | 1946 ft | 120 kts | 178° |
| 2026-04-25 19:12 | 34.94033 | -81.06172 | 2325 ft | 127 kts | 189° |
| 2026-04-25 19:12 | 34.93179 | -81.06482 | 2587 ft | 136 kts | 215° |
| 2026-04-25 19:12 | 34.92476 | -81.07246 | 2943 ft | 137 kts | 236° |
| 2026-04-25 19:13 | 34.92106 | -81.08352 | 3154 ft | 143 kts | 265° |
| 2026-04-25 19:13 | 34.92304 | -81.09547 | 3392 ft | 151 kts | 295° |
| 2026-04-25 19:13 | 34.93037 | -81.10519 | 3463 ft | 168 kts | 319° |
| 2026-04-25 19:13 | 34.94034 | -81.11382 | 3418 ft | 179 kts | 321° |
| 2026-04-25 19:14 | 34.95012 | -81.12141 | 3920 ft | 159 kts | 324° |
| 2026-04-25 19:14 | 34.95664 | -81.12595 | 3909 ft | 169 kts | 326° |
| 2026-04-25 19:14 | 34.97159 | -81.13515 | 3806 ft | 186 kts | 330° |
| 2026-04-25 19:14 | 34.98340 | -81.14126 | 3961 ft | 184 kts | 334° |
| 2026-04-25 19:15 | 34.99459 | -81.14879 | 3889 ft | 190 kts | 315° |
| 2026-04-25 19:15 | 35.00351 | -81.16161 | 3599 ft | 202 kts | 302° |
| 2026-04-25 19:15 | 35.01129 | -81.17539 | 3704 ft | 196 kts | 302° |
| 2026-04-25 19:15 | 35.02032 | -81.18845 | 3483 ft | 209 kts | 311° |
| 2026-04-25 19:16 | 35.03170 | -81.20038 | 3319 ft | 216 kts | 322° |
| 2026-04-25 19:16 | 35.04265 | -81.21206 | 3380 ft | 207 kts | 307° |
| 2026-04-25 19:16 | 35.05062 | -81.22654 | 3311 ft | 207 kts | 296° |
| 2026-04-25 19:16 | 35.05689 | -81.24184 | 3596 ft | 191 kts | 292° |
| 2026-04-25 19:17 | 35.06197 | -81.25717 | 3484 ft | 198 kts | 281° |
| 2026-04-25 19:17 | 35.06276 | -81.27392 | 3361 ft | 202 kts | 264° |
| 2026-04-25 19:17 | 35.06203 | -81.29145 | 3211 ft | 208 kts | 267° |
| 2026-04-25 19:17 | 35.06131 | -81.30799 | 3482 ft | 193 kts | 260° |
| 2026-04-25 19:18 | 35.05877 | -81.32397 | 3571 ft | 191 kts | 254° |
| 2026-04-25 19:18 | 35.05542 | -81.33997 | 3441 ft | 200 kts | 253° |
| 2026-04-25 19:18 | 35.05256 | -81.35667 | 3487 ft | 199 kts | 257° |
| 2026-04-25 19:18 | 35.04985 | -81.37303 | 3616 ft | 193 kts | 254° |
| 2026-04-25 19:19 | 35.04644 | -81.38893 | 3605 ft | 196 kts | 252° |
| 2026-04-25 19:19 | 35.04310 | -81.40513 | 3621 ft | 197 kts | 255° |
| 2026-04-25 19:19 | 35.04036 | -81.42147 | 3720 ft | 194 kts | 256° |
| 2026-04-25 19:19 | 35.03891 | -81.43223 | 3750 ft | 194 kts | 259° |
| 2026-04-25 19:20 | 35.03734 | -81.45444 | 3769 ft | 196 kts | 263° |
| 2026-04-25 19:20 | 35.03606 | -81.47067 | 3860 ft | 192 kts | 260° |
| 2026-04-25 19:20 | 35.03449 | -81.48690 | 3900 ft | 192 kts | 261° |
| 2026-04-25 19:20 | 35.03354 | -81.50331 | 3897 ft | 194 kts | 263° |
| 2026-04-25 19:21 | 35.03295 | -81.51976 | 3980 ft | 192 kts | 266° |
| 2026-04-25 19:21 | 35.03505 | -81.55221 | 3997 ft | 193 kts | 264° |
| 2026-04-25 19:21 | 35.03240 | -81.56809 | 4028 ft | 189 kts | 248° |
| 2026-04-25 19:22 | 35.02729 | -81.58275 | 4096 ft | 186 kts | 242° |
| 2026-04-25 19:22 | 35.02084 | -81.59712 | 3792 ft | 200 kts | 239° |
| 2026-04-25 19:22 | 35.00824 | -81.62704 | 3653 ft | 201 kts | 245° |
| 2026-04-25 19:23 | 35.00261 | -81.64298 | 3414 ft | 207 kts | 247° |
| 2026-04-25 19:23 | 34.99321 | -81.67565 | 3337 ft | 202 kts | 251° |
| 2026-04-25 19:23 | 34.98939 | -81.69217 | 3198 ft | 205 kts | 253° |
| 2026-04-25 19:24 | 34.98593 | -81.70912 | 3099 ft | 205 kts | 255° |
| 2026-04-25 19:24 | 34.98301 | -81.72599 | 3053 ft | 204 kts | 257° |
| 2026-04-25 19:24 | 34.97838 | -81.76034 | 2954 ft | 201 kts | 261° |
| 2026-04-25 19:25 | 34.97578 | -81.79350 | 3101 ft | 192 kts | 263° |
| 2026-04-25 19:25 | 34.97501 | -81.80936 | 3294 ft | 185 kts | 263° |
| 2026-04-25 19:25 | 34.97429 | -81.82524 | 3235 ft | 191 kts | 266° |
| 2026-04-25 19:26 | 34.97421 | -81.84170 | 3207 ft | 194 kts | 269° |
| 2026-04-25 19:26 | 34.97496 | -81.85771 | 3241 ft | 186 kts | 271° |
| 2026-04-25 19:26 | 34.97597 | -81.87312 | 2927 ft | 180 kts | 270° |
| 2026-04-25 19:26 | 34.97470 | -81.88776 | 2604 ft | 171 kts | 250° |
| 2026-04-25 19:27 | 34.96847 | -81.90009 | 2032 ft | 181 kts | 224° |
| 2026-04-25 19:27 | 34.96206 | -81.90678 | 1677 ft | 184 kts | 220° |
| 2026-04-25 19:27 | 34.94957 | -81.91975 | 1341 ft | 167 kts | 222° |
| 2026-04-25 19:27 | 34.94159 | -81.92869 | 1101 ft | 151 kts | 221° |
| 2026-04-25 19:28 | 34.93426 | -81.93650 | 992 ft | 135 kts | 221° |
| 2026-04-25 19:28 | 34.92777 | -81.94353 | 919 ft | 107 kts | 225° |
| 2026-04-25 19:28 | 34.92283 | -81.94884 | 816 ft | 86 kts | 223° |